Time;durP1;ratioP1;P1;durP2;ratioP2;P2;SDS_P1;SDS_P2;PMS_P1;PMS_P2;Temp;Humidity;BMP_temperature;BMP_pressure;BME280_temperature;BME280_humidity;BME280_pressure;Samples;Min_cycle;Max_cycle;Signal;HPM_P1;HPM_P2
2021/09/21 00:00:28;;;;;;;1.83;0.98;;;17.90;99.70;;;;;;4958245;28;20029;-60
2021/09/21 00:02:53;;;;;;;1.10;1.00;;;18.00;99.60;;;;;;4973926;28;20026;-60
2021/09/21 00:05:19;;;;;;;2.55;1.20;;;18.00;99.40;;;;;;4975433;28;20369;-60
2021/09/21 00:07:46;;;;;;;1.65;1.02;;;18.00;99.40;;;;;;4977618;28;20038;-60
2021/09/21 00:10:12;;;;;;;1.83;1.40;;;18.00;99.20;;;;;;4979086;28;20027;-60
2021/09/21 00:12:38;;;;;;;0.70;0.68;;;18.00;98.70;;;;;;4973430;28;20366;-60
2021/09/21 00:15:06;;;;;;;1.27;0.90;;;18.00;98.40;;;;;;4974150;28;20034;-60
2021/09/21 00:17:32;;;;;;;1.45;0.98;;;18.00;98.10;;;;;;4983134;28;20046;-60
2021/09/21 00:19:58;;;;;;;0.95;0.82;;;18.00;98.30;;;;;;4965218;28;20150;-60
2021/09/21 00:22:24;;;;;;;2.60;1.52;;;18.00;98.00;;;;;;4957493;28;20462;-60
2021/09/21 00:24:49;;;;;;;1.45;1.02;;;18.00;98.30;;;;;;4946919;29;20038;-60
2021/09/21 00:27:15;;;;;;;1.50;1.02;;;18.00;98.60;;;;;;4958003;28;20026;-60
2021/09/21 00:29:41;;;;;;;1.20;1.08;;;18.00;98.40;;;;;;4957044;28;20485;-60
2021/09/21 00:32:13;;;;;;;2.53;1.30;;;18.00;98.20;;;;;;4959066;28;20030;-60
2021/09/21 00:34:39;;;;;;;2.88;1.58;;;18.00;98.20;;;;;;4963475;28;20043;-60
2021/09/21 00:37:10;;;;;;;2.78;1.70;;;18.00;98.60;;;;;;4938958;29;20466;-60
2021/09/21 00:39:35;;;;;;;2.88;1.80;;;18.00;97.60;;;;;;4963547;28;20041;-60
2021/09/21 00:42:01;;;;;;;2.40;1.90;;;17.90;98.10;;;;;;4941022;29;20027;-60
2021/09/21 00:44:27;;;;;;;4.13;1.85;;;18.00;98.30;;;;;;4958248;28;20142;-60
2021/09/21 00:46:53;;;;;;;3.70;2.17;;;17.90;97.70;;;;;;4961174;28;20113;-60
2021/09/21 00:49:18;;;;;;;5.95;2.25;;;18.00;98.30;;;;;;4967927;28;20493;-60
2021/09/21 00:51:44;;;;;;;3.40;2.35;;;18.00;98.00;;;;;;4970472;28;20039;-61
2021/09/21 00:54:10;;;;;;;3.72;1.90;;;18.00;98.50;;;;;;4968480;28;20134;-60
2021/09/21 00:56:38;;;;;;;3.58;1.85;;;18.00;98.20;;;;;;4958058;28;20048;-60
2021/09/21 00:59:03;;;;;;;2.25;1.50;;;18.00;97.50;;;;;;4966039;28;20448;-60
2021/09/21 01:01:29;;;;;;;2.30;1.85;;;18.10;97.80;;;;;;4966972;28;20070;-60
2021/09/21 01:03:55;;;;;;;2.67;1.73;;;18.00;97.30;;;;;;4970991;28;20418;-60
2021/09/21 01:06:20;;;;;;;3.83;1.58;;;18.10;97.70;;;;;;4957250;28;20031;-60
2021/09/21 01:08:46;;;;;;;2.40;1.70;;;18.10;97.40;;;;;;4957591;28;20023;-60
2021/09/21 01:11:12;;;;;;;3.25;1.85;;;18.20;97.50;;;;;;4957041;28;20114;-61
2021/09/21 01:13:39;;;;;;;3.13;1.75;;;18.30;97.10;;;;;;4957362;29;20043;-60
2021/09/21 01:16:05;;;;;;;2.85;1.45;;;18.30;97.40;;;;;;4957381;28;20038;-60
2021/09/21 01:18:32;;;;;;;1.27;1.15;;;18.20;96.90;;;;;;4970508;28;20059;-60
2021/09/21 01:21:11;;;;;;;1.52;1.23;;;18.30;96.20;;;;;;4983211;28;20117;-60
2021/09/21 01:24:04;;;;;;;1.67;0.82;;;18.30;95.90;;;;;;4976708;28;20369;-60
2021/09/21 01:26:30;;;;;;;1.40;1.00;;;18.30;96.10;;;;;;4961451;28;20042;-60
2021/09/21 01:28:55;;;;;;;1.25;1.10;;;18.40;95.80;;;;;;4989621;28;20060;-60
2021/09/21 01:31:21;;;;;;;2.58;1.05;;;18.30;95.60;;;;;;4983489;28;20077;-60
2021/09/21 01:33:50;;;;;;;1.75;0.90;;;18.30;95.70;;;;;;4976718;28;20042;-61
2021/09/21 01:36:17;;;;;;;1.02;0.85;;;18.30;95.40;;;;;;4975911;28;20027;-60
2021/09/21 01:38:43;;;;;;;2.25;0.75;;;18.40;95.10;;;;;;4988527;28;20129;-60
2021/09/21 01:41:09;;;;;;;1.05;0.80;;;18.30;95.00;;;;;;4982036;28;20022;-60
2021/09/21 01:43:35;;;;;;;2.35;0.88;;;18.40;95.30;;;;;;4995677;28;20472;-60
2021/09/21 01:46:00;;;;;;;2.30;1.02;;;18.40;94.40;;;;;;4982486;28;20034;-60
2021/09/21 01:48:26;;;;;;;1.00;0.60;;;18.50;94.80;;;;;;4980109;28;20033;-60
2021/09/21 02:01:00;;;;;;;2.13;1.42;;;18.60;94.00;;;;;;4982224;28;20062;-60
2021/09/21 02:03:26;;;;;;;2.53;1.60;;;18.50;94.10;;;;;;4979216;28;20058;-60
2021/09/21 02:05:51;;;;;;;2.53;1.60;;;18.50;94.30;;;;;;4974999;28;20069;-61
2021/09/21 02:08:17;;;;;;;2.83;1.45;;;18.50;95.00;;;;;;4976609;28;20035;-60
2021/09/21 02:10:43;;;;;;;2.22;1.45;;;18.40;95.00;;;;;;4975551;28;20027;-60
2021/09/21 02:13:09;;;;;;;4.28;1.70;;;18.40;95.30;;;;;;4984769;28;20051;-61
2021/09/21 02:15:35;;;;;;;2.55;1.67;;;18.50;95.70;;;;;;4974724;28;20077;-60
2021/09/21 02:18:01;;;;;;;3.05;1.38;;;18.50;95.70;;;;;;4981072;28;20050;-61
2021/09/21 02:20:28;;;;;;;2.33;1.55;;;18.50;95.70;;;;;;4978157;28;20474;-61
2021/09/21 02:22:54;;;;;;;2.20;1.63;;;18.50;95.70;;;;;;4980223;28;20424;-61
2021/09/21 02:25:20;;;;;;;1.92;1.50;;;18.40;95.60;;;;;;4984933;28;20034;-60
2021/09/21 02:27:46;;;;;;;2.80;1.80;;;18.40;95.50;;;;;;4978524;28;20023;-60
2021/09/21 02:30:12;;;;;;;2.75;1.27;;;18.40;95.50;;;;;;4981689;28;20118;-60
2021/09/21 02:32:38;;;;;;;1.67;1.50;;;18.40;95.70;;;;;;4979627;28;20117;-60
2021/09/21 02:35:04;;;;;;;1.98;1.38;;;18.30;95.70;;;;;;4981509;28;20067;-60
2021/09/21 02:37:30;;;;;;;1.92;1.48;;;18.40;95.80;;;;;;4970031;28;20042;-60
2021/09/21 02:39:55;;;;;;;2.42;1.35;;;18.40;95.00;;;;;;4973774;28;20027;-60
2021/09/21 02:42:21;;;;;;;1.75;1.42;;;18.40;95.90;;;;;;4974753;28;20122;-61
2021/09/21 02:44:47;;;;;;;2.67;1.60;;;18.40;96.00;;;;;;4973501;28;20373;-60
2021/09/21 02:47:12;;;;;;;1.52;1.42;;;18.40;96.10;;;;;;4974877;28;20117;-61
2021/09/21 02:49:38;;;;;;;1.70;1.25;;;18.40;96.20;;;;;;4974897;28;20023;-60
2021/09/21 02:52:04;;;;;;;3.55;1.30;;;18.30;95.80;;;;;;4957580;28;20073;-60
2021/09/21 02:54:30;;;;;;;2.08;1.60;;;18.30;96.10;;;;;;4977204;28;20026;-60
2021/09/21 02:56:56;;;;;;;3.95;1.77;;;18.40;95.60;;;;;;4987818;28;20035;-60
2021/09/21 02:59:21;;;;;;;3.20;1.65;;;18.40;95.60;;;;;;4977463;28;20035;-60
2021/09/21 03:01:48;;;;;;;2.40;1.63;;;18.40;95.20;;;;;;4982378;28;20026;-60
2021/09/21 03:04:27;;;;;;;1.67;1.52;;;18.40;95.30;;;;;;4987289;28;20030;-60
2021/09/21 03:07:01;;;;;;;1.80;1.70;;;18.50;94.90;;;;;;4970341;28;20560;-61
2021/09/21 03:12:27;;;;;;;1.70;1.60;;;18.40;94.50;;;;;;4974381;28;20035;-60
2021/09/21 03:17:32;;;;;;;2.85;1.70;;;18.40;93.90;;;;;;4975895;28;20053;-60
2021/09/21 03:20:02;;;;;;;2.67;2.05;;;18.50;93.80;;;;;;4974608;28;20047;-60
2021/09/21 03:22:29;;;;;;;3.20;2.33;;;18.40;93.40;;;;;;4982018;28;20039;-60
2021/09/21 03:24:55;;;;;;;3.03;2.10;;;18.30;93.30;;;;;;4973193;28;20027;-60
2021/09/21 03:27:21;;;;;;;2.72;1.95;;;18.40;93.40;;;;;;4980833;28;20034;-60
2021/09/21 03:29:47;;;;;;;3.10;1.75;;;18.30;92.90;;;;;;4972319;28;20046;-60
2021/09/21 03:32:13;;;;;;;4.32;2.35;;;18.30;92.70;;;;;;4954224;28;20043;-60
2021/09/21 03:34:39;;;;;;;2.42;2.20;;;18.30;92.40;;;;;;4972642;28;20027;-60
2021/09/21 03:37:07;;;;;;;2.40;2.17;;;18.30;92.90;;;;;;4974083;28;20033;-60
2021/09/21 03:39:32;;;;;;;3.45;1.95;;;18.30;92.60;;;;;;4974628;28;20023;-60
2021/09/21 03:41:58;;;;;;;2.42;2.22;;;18.30;92.80;;;;;;4972508;28;20045;-60
2021/09/21 03:44:26;;;;;;;3.17;2.40;;;18.30;92.30;;;;;;4973056;28;20037;-60
2021/09/21 03:46:51;;;;;;;3.47;2.15;;;18.30;92.30;;;;;;4974896;28;20043;-60
2021/09/21 03:49:17;;;;;;;2.67;2.00;;;18.30;92.50;;;;;;4975936;28;20388;-60
2021/09/21 03:51:43;;;;;;;4.00;2.75;;;18.30;92.40;;;;;;4957248;28;20433;-60
2021/09/21 03:54:09;;;;;;;4.05;2.50;;;18.40;92.30;;;;;;4976668;28;20034;-60
2021/09/21 03:56:38;;;;;;;4.68;2.55;;;18.30;91.90;;;;;;4978149;28;20042;-60
2021/09/21 03:59:05;;;;;;;3.33;2.60;;;18.30;92.10;;;;;;4974779;28;20031;-61
2021/09/21 04:01:31;;;;;;;2.95;2.70;;;18.10;91.80;;;;;;4983380;28;20039;-60
2021/09/21 04:03:57;;;;;;;3.00;2.53;;;18.30;91.90;;;;;;4986591;28;20391;-60
2021/09/21 04:06:24;;;;;;;2.75;2.55;;;18.20;91.70;;;;;;4979675;28;20027;-60
2021/09/21 04:08:50;;;;;;;2.53;2.33;;;18.20;91.50;;;;;;4979213;28;20045;-60
2021/09/21 04:11:16;;;;;;;3.25;2.50;;;18.20;91.50;;;;;;4971279;28;20480;-60
2021/09/21 04:13:42;;;;;;;2.90;2.05;;;18.20;91.40;;;;;;4961727;28;20057;-60
2021/09/21 04:16:07;;;;;;;2.67;2.47;;;18.30;91.50;;;;;;4975474;28;20041;-60
2021/09/21 04:18:33;;;;;;;3.22;2.40;;;18.30;91.70;;;;;;4985041;28;20414;-60
2021/09/21 04:20:59;;;;;;;3.58;2.72;;;18.30;91.70;;;;;;4987682;28;20112;-60
2021/09/21 04:23:24;;;;;;;4.30;2.30;;;18.30;91.70;;;;;;4991423;28;20116;-60
2021/09/21 04:25:50;;;;;;;2.65;2.45;;;18.30;91.60;;;;;;4972926;28;20035;-60
2021/09/21 04:28:16;;;;;;;3.25;2.28;;;18.30;91.70;;;;;;4986612;28;20045;-60
2021/09/21 04:30:43;;;;;;;3.83;2.70;;;18.30;91.30;;;;;;4975874;28;20110;-60
2021/09/21 04:33:10;;;;;;;3.63;2.22;;;18.30;91.70;;;;;;4975316;28;20035;-60
2021/09/21 04:35:37;;;;;;;2.88;2.30;;;18.20;91.20;;;;;;4979021;28;20027;-60
2021/09/21 04:38:03;;;;;;;5.25;2.97;;;18.20;91.70;;;;;;4979857;28;20088;-60
2021/09/21 04:40:28;;;;;;;4.28;2.58;;;18.20;91.70;;;;;;4975618;28;20035;-60
2021/09/21 04:42:54;;;;;;;5.43;2.50;;;18.20;92.00;;;;;;4981756;28;20121;-60
2021/09/21 04:45:20;;;;;;;2.53;2.33;;;18.20;92.00;;;;;;4979760;28;20043;-60
2021/09/21 04:47:46;;;;;;;5.30;3.00;;;18.20;92.10;;;;;;4977428;28;20105;-60
2021/09/21 04:50:12;;;;;;;5.45;2.95;;;18.30;92.00;;;;;;4992040;28;20026;-61
2021/09/21 04:52:37;;;;;;;3.45;2.90;;;18.20;91.90;;;;;;4954333;28;20035;-60
2021/09/21 04:55:03;;;;;;;3.35;2.58;;;18.20;92.00;;;;;;4970679;28;20045;-60
2021/09/21 04:57:29;;;;;;;3.75;2.92;;;18.10;91.80;;;;;;4972742;28;20027;-60
2021/09/21 04:59:55;;;;;;;3.15;2.83;;;18.10;91.80;;;;;;4984655;28;20369;-60
2021/09/21 05:02:20;;;;;;;3.60;3.03;;;18.10;91.70;;;;;;4968409;28;21558;-60
2021/09/21 05:04:46;;;;;;;3.78;2.70;;;18.00;91.00;;;;;;4976438;28;20023;-60
2021/09/21 05:07:11;;;;;;;3.28;2.40;;;18.10;91.50;;;;;;4961525;28;20057;-60
2021/09/21 05:09:37;;;;;;;4.53;2.83;;;18.10;91.80;;;;;;4982410;28;20053;-60
2021/09/21 05:12:04;;;;;;;4.32;2.47;;;18.10;91.60;;;;;;4990982;28;20081;-60
2021/09/21 05:14:30;;;;;;;4.07;2.80;;;18.10;91.80;;;;;;4975690;28;20039;-60
2021/09/21 05:16:55;;;;;;;3.90;3.50;;;18.10;91.80;;;;;;4978955;28;20069;-60
2021/09/21 05:19:21;;;;;;;3.42;3.13;;;18.00;91.90;;;;;;4983184;28;20081;-60
2021/09/21 05:21:47;;;;;;;4.72;3.15;;;18.10;91.90;;;;;;4994646;28;20053;-60
2021/09/21 05:24:12;;;;;;;5.75;3.33;;;18.20;91.80;;;;;;4976468;28;20538;-60
2021/09/21 05:26:38;;;;;;;3.97;3.58;;;18.20;91.90;;;;;;4959609;28;20042;-60
2021/09/21 05:29:05;;;;;;;4.60;3.33;;;18.10;92.00;;;;;;4976719;28;20035;-60
2021/09/21 05:31:31;;;;;;;3.10;2.83;;;18.10;92.20;;;;;;4976267;28;20097;-61
2021/09/21 05:33:57;;;;;;;6.80;3.50;;;18.10;91.80;;;;;;4975450;28;20046;-60
2021/09/21 05:36:22;;;;;;;5.13;3.28;;;18.00;91.90;;;;;;4969209;28;20097;-60
2021/09/21 05:38:48;;;;;;;4.80;3.25;;;18.00;91.90;;;;;;4954895;28;20374;-60
2021/09/21 05:41:14;;;;;;;3.92;3.55;;;17.90;91.30;;;;;;4950979;28;20055;-60
2021/09/21 05:43:39;;;;;;;4.78;3.03;;;18.00;91.90;;;;;;4971672;28;20112;-60
2021/09/21 05:46:06;;;;;;;5.07;4.13;;;18.00;91.90;;;;;;4969389;28;20034;-60
2021/09/21 05:48:32;;;;;;;5.40;3.50;;;18.00;92.20;;;;;;4974731;28;20035;-60
2021/09/21 05:50:57;;;;;;;4.32;3.45;;;18.00;92.00;;;;;;4975637;28;20035;-60
2021/09/21 05:53:23;;;;;;;5.53;4.22;;;18.00;91.90;;;;;;4981455;28;20130;-60
2021/09/21 05:55:48;;;;;;;4.65;3.78;;;18.20;91.90;;;;;;4976148;28;20031;-60
2021/09/21 05:58:15;;;;;;;6.32;4.07;;;18.10;91.40;;;;;;4957897;28;20035;-60
2021/09/21 06:00:41;;;;;;;4.78;4.15;;;18.20;91.50;;;;;;4984942;28;20034;-60
2021/09/21 06:03:06;;;;;;;5.28;3.83;;;18.20;91.30;;;;;;4974760;28;20432;-60
2021/09/21 06:05:32;;;;;;;4.93;3.58;;;18.30;90.80;;;;;;4970535;28;20026;-60
2021/09/21 06:07:58;;;;;;;6.00;3.70;;;18.30;91.00;;;;;;4957052;28;20030;-61
2021/09/21 06:10:24;;;;;;;7.63;4.15;;;18.30;90.80;;;;;;4975300;28;20050;-60
2021/09/21 06:12:50;;;;;;;5.50;3.67;;;18.30;90.70;;;;;;4972821;28;20524;-60
2021/09/21 06:15:19;;;;;;;6.43;3.63;;;18.40;90.70;;;;;;4979430;28;20069;-60
2021/09/21 06:17:46;;;;;;;4.65;3.28;;;18.40;90.60;;;;;;4959404;28;20527;-60
2021/09/21 06:20:13;;;;;;;6.72;4.13;;;18.40;90.50;;;;;;4975189;28;20426;-60
2021/09/21 06:22:42;;;;;;;6.47;3.70;;;18.40;90.20;;;;;;4975597;28;20388;-60
2021/09/21 06:25:09;;;;;;;8.02;4.50;;;18.50;89.90;;;;;;4973875;28;20027;-60
2021/09/21 06:27:35;;;;;;;7.13;4.85;;;18.50;88.30;;;;;;4978119;28;20382;-60
2021/09/21 06:30:03;;;;;;;5.43;4.38;;;18.60;89.20;;;;;;4982957;28;20118;-60
2021/09/21 06:32:29;;;;;;;9.27;3.97;;;18.60;88.60;;;;;;4955344;28;20034;-60
2021/09/21 06:34:55;;;;;;;6.43;4.00;;;18.60;87.60;;;;;;4974151;28;20488;-60
2021/09/21 06:37:20;;;;;;;5.68;3.72;;;18.60;87.10;;;;;;4969540;28;20019;-60
2021/09/21 06:39:46;;;;;;;4.88;3.60;;;18.60;86.50;;;;;;4972633;28;20037;-61
2021/09/21 06:42:11;;;;;;;6.00;4.03;;;18.70;86.10;;;;;;4972603;28;20031;-60
2021/09/21 06:44:37;;;;;;;5.88;3.90;;;18.70;85.50;;;;;;4956497;28;20041;-60
2021/09/21 06:47:04;;;;;;;8.07;4.93;;;18.70;85.60;;;;;;4974833;28;20085;-60
2021/09/21 06:49:30;;;;;;;5.63;4.63;;;18.80;85.70;;;;;;4974010;28;20030;-60
2021/09/21 06:51:56;;;;;;;6.75;4.63;;;18.90;84.80;;;;;;4974847;28;20114;-60
2021/09/21 06:54:22;;;;;;;6.72;3.88;;;18.90;84.70;;;;;;4956992;28;20038;-60
2021/09/21 06:56:48;;;;;;;5.38;3.67;;;19.00;84.00;;;;;;4956326;28;20042;-60
2021/09/21 06:59:13;;;;;;;4.47;3.75;;;18.90;82.50;;;;;;4974859;28;20039;-60
2021/09/21 07:01:39;;;;;;;4.20;3.58;;;19.00;82.00;;;;;;4956239;28;20129;-60
2021/09/21 07:04:04;;;;;;;5.57;3.70;;;18.90;81.00;;;;;;4973598;28;20087;-61
2021/09/21 07:06:30;;;;;;;8.60;3.97;;;18.90;81.40;;;;;;4971848;28;20101;-60
2021/09/21 07:08:56;;;;;;;6.75;3.83;;;19.00;81.10;;;;;;4962730;28;20046;-60
2021/09/21 07:11:21;;;;;;;4.53;3.03;;;19.00;81.60;;;;;;4968189;28;20022;-60
2021/09/21 07:13:48;;;;;;;4.75;3.38;;;18.90;80.80;;;;;;4974592;28;20035;-61
2021/09/21 07:16:14;;;;;;;5.25;3.33;;;18.90;80.50;;;;;;4971327;28;20038;-60
2021/09/21 07:18:39;;;;;;;6.40;4.20;;;18.90;80.10;;;;;;4971975;28;20050;-60
2021/09/21 07:21:06;;;;;;;6.00;3.67;;;19.00;80.10;;;;;;4971630;28;20117;-61
2021/09/21 07:23:33;;;;;;;5.82;3.60;;;19.10;80.30;;;;;;4972460;28;20160;-61
2021/09/21 07:25:58;;;;;;;5.63;4.35;;;19.10;79.70;;;;;;4971546;28;20035;-60
2021/09/21 07:28:24;;;;;;;6.65;3.33;;;19.10;79.10;;;;;;4956977;28;20069;-60
2021/09/21 07:30:50;;;;;;;6.82;3.88;;;19.10;78.20;;;;;;4971528;28;20038;-60
2021/09/21 07:33:16;;;;;;;9.45;4.55;;;19.20;78.60;;;;;;4955808;28;20035;-62
2021/09/21 07:35:42;;;;;;;9.60;4.70;;;19.20;79.20;;;;;;4972623;28;20065;-60
2021/09/21 07:38:08;;;;;;;7.25;4.28;;;19.20;78.60;;;;;;4965077;28;20035;-60
2021/09/21 07:40:36;;;;;;;6.47;4.50;;;19.40;78.40;;;;;;4971465;28;20086;-60
2021/09/21 07:43:05;;;;;;;5.07;3.88;;;19.40;78.10;;;;;;4973254;28;20117;-60
2021/09/21 07:45:32;;;;;;;8.48;3.72;;;19.30;76.90;;;;;;4972524;28;20027;-59
2021/09/21 07:47:58;;;;;;;6.90;4.20;;;19.30;78.30;;;;;;4972711;28;20373;-60
2021/09/21 07:50:25;;;;;;;6.22;3.70;;;19.30;79.90;;;;;;4970268;28;20046;-60
2021/09/21 07:52:55;;;;;;;6.05;3.83;;;19.40;79.10;;;;;;4973283;28;20039;-60
2021/09/21 07:55:21;;;;;;;6.57;3.40;;;19.40;77.20;;;;;;4970368;28;20461;-60
2021/09/21 07:57:46;;;;;;;6.07;4.47;;;19.50;76.30;;;;;;4973377;28;20365;-60
2021/09/21 08:00:15;;;;;;;4.70;3.92;;;19.40;75.40;;;;;;4972194;28;20066;-60
2021/09/21 08:02:41;;;;;;;6.18;3.85;;;19.40;73.10;;;;;;4971093;28;20097;-60
2021/09/21 08:05:07;;;;;;;7.00;4.45;;;19.50;74.40;;;;;;4970734;28;20061;-59
2021/09/21 08:07:33;;;;;;;4.85;3.30;;;19.40;73.70;;;;;;4971922;28;20035;-59
2021/09/21 08:10:00;;;;;;;4.00;3.50;;;19.70;74.30;;;;;;4972756;28;20122;-59
2021/09/21 08:12:27;;;;;;;4.15;3.53;;;19.80;72.80;;;;;;4972841;28;20429;-60
2021/09/21 08:14:53;;;;;;;4.70;3.72;;;19.90;72.90;;;;;;4972219;28;20034;-59
2021/09/21 08:17:24;;;;;;;4.68;3.78;;;20.00;72.70;;;;;;4972561;28;20031;-59
2021/09/21 08:19:50;;;;;;;4.97;4.18;;;19.70;70.10;;;;;;4972763;28;20038;-59
2021/09/21 08:22:17;;;;;;;5.20;4.18;;;19.80;72.70;;;;;;4971978;28;20027;-60
2021/09/21 08:24:44;;;;;;;6.28;4.00;;;19.80;71.60;;;;;;4972904;28;20108;-60
2021/09/21 08:27:09;;;;;;;8.07;3.22;;;19.90;71.20;;;;;;4972499;28;20042;-60
2021/09/21 08:29:35;;;;;;;4.30;3.88;;;19.90;70.80;;;;;;4972735;28;20400;-60
2021/09/21 08:32:01;;;;;;;4.30;3.42;;;20.00;70.50;;;;;;4972377;28;20481;-60
2021/09/21 08:34:27;;;;;;;5.28;4.00;;;20.10;70.00;;;;;;4955272;28;20046;-60
2021/09/21 08:36:53;;;;;;;7.60;4.15;;;20.10;68.60;;;;;;4972122;28;20469;-61
2021/09/21 08:39:20;;;;;;;4.95;4.05;;;20.30;68.80;;;;;;4976789;28;20437;-60
2021/09/21 08:41:48;;;;;;;5.28;3.78;;;20.20;67.80;;;;;;4974364;28;20467;-60
2021/09/21 08:44:14;;;;;;;5.55;4.53;;;20.30;68.30;;;;;;4976880;28;20117;-60
2021/09/21 08:46:40;;;;;;;6.85;5.88;;;20.30;68.00;;;;;;4974924;28;20053;-60
2021/09/21 08:49:05;;;;;;;7.82;4.55;;;20.40;67.50;;;;;;4976647;28;20030;-60
2021/09/21 08:51:31;;;;;;;4.63;4.20;;;20.40;65.80;;;;;;4957357;28;20447;-60
2021/09/21 08:53:57;;;;;;;7.18;3.85;;;20.50;67.10;;;;;;4974486;28;20039;-60
2021/09/21 08:56:23;;;;;;;4.05;3.30;;;20.60;66.20;;;;;;4968022;28;20035;-59
2021/09/21 08:58:56;;;;;;;6.60;4.38;;;20.50;64.10;;;;;;4974539;28;20061;-59
2021/09/21 09:01:21;;;;;;;5.80;4.10;;;20.70;67.00;;;;;;4973575;28;20496;-60
2021/09/21 09:03:57;;;;;;;4.30;3.60;;;20.80;65.70;;;;;;4971428;28;20035;-60
2021/09/21 09:06:23;;;;;;;5.95;3.33;;;20.80;64.60;;;;;;4975295;28;20031;-60
2021/09/21 09:08:49;;;;;;;6.20;3.58;;;20.80;64.40;;;;;;4975114;28;20030;-60
2021/09/21 09:11:24;;;;;;;7.78;4.22;;;21.00;65.40;;;;;;4973444;28;20085;-60
2021/09/21 09:13:53;;;;;;;5.15;3.38;;;21.00;63.00;;;;;;4971680;28;20049;-60
2021/09/21 09:16:20;;;;;;;4.60;3.42;;;20.90;63.80;;;;;;4970026;28;20388;-60
2021/09/21 09:18:49;;;;;;;9.05;5.00;;;21.00;64.20;;;;;;4969093;28;20135;-60
2021/09/21 09:21:18;;;;;;;6.13;5.55;;;21.10;64.30;;;;;;4975188;28;20054;-60
2021/09/21 09:23:52;;;;;;;5.28;4.38;;;21.00;63.50;;;;;;4968146;28;20129;-60
2021/09/21 09:26:23;;;;;;;4.50;3.50;;;21.20;65.00;;;;;;4975133;28;20023;-60
2021/09/21 09:28:50;;;;;;;5.50;4.90;;;21.30;63.30;;;;;;4975824;28;20041;-60
2021/09/21 09:31:30;;;;;;;5.65;4.82;;;21.20;63.60;;;;;;4975031;28;20114;-60
2021/09/21 09:34:07;;;;;;;6.78;4.45;;;21.30;62.90;;;;;;4969275;28;20043;-61
2021/09/21 09:36:49;;;;;;;4.65;4.25;;;21.40;63.50;;;;;;4975132;28;20033;-60
2021/09/21 09:39:17;;;;;;;4.35;3.70;;;21.40;63.70;;;;;;4975720;28;20121;-60
2021/09/21 09:41:44;;;;;;;6.60;4.88;;;21.40;63.80;;;;;;4957540;28;20035;-60
2021/09/21 09:44:16;;;;;;;6.50;4.20;;;21.40;63.00;;;;;;4975026;28;20030;-60
2021/09/21 09:46:52;;;;;;;7.80;4.82;;;21.40;63.60;;;;;;4974840;28;20034;-60
2021/09/21 09:49:29;;;;;;;4.43;4.00;;;21.30;62.60;;;;;;4975309;28;20141;-60
2021/09/21 09:52:02;;;;;;;5.65;4.68;;;21.20;62.80;;;;;;4974763;28;20035;-62
2021/09/21 09:54:27;;;;;;;5.22;4.22;;;20.80;63.30;;;;;;4975129;28;20121;-60
2021/09/21 09:56:54;;;;;;;4.72;4.32;;;20.60;64.90;;;;;;4973307;28;20130;-60
2021/09/21 09:59:21;;;;;;;6.18;4.85;;;20.50;65.50;;;;;;4975206;28;20034;-60
2021/09/21 10:01:47;;;;;;;4.85;3.95;;;20.50;65.80;;;;;;4972765;28;20070;-60
2021/09/21 10:04:13;;;;;;;7.38;4.07;;;20.40;65.00;;;;;;4970444;28;20038;-61
2021/09/21 10:06:40;;;;;;;7.55;4.70;;;20.40;66.70;;;;;;4974525;28;20497;-60
2021/09/21 10:09:07;;;;;;;6.53;3.92;;;20.40;66.50;;;;;;4975098;28;20090;-60
2021/09/21 10:11:33;;;;;;;4.25;3.10;;;20.40;66.00;;;;;;4974362;28;20031;-60
2021/09/21 10:14:04;;;;;;;7.75;4.10;;;20.40;63.20;;;;;;4958105;28;20038;-60
2021/09/21 10:16:31;;;;;;;5.00;4.45;;;20.50;65.30;;;;;;4957521;28;20027;-60
2021/09/21 10:18:59;;;;;;;7.00;4.60;;;20.50;65.80;;;;;;4954646;29;20134;-60
2021/09/21 10:21:35;;;;;;;4.28;3.47;;;20.50;65.40;;;;;;4962952;28;20026;-60
2021/09/21 10:24:04;;;;;;;3.00;2.60;;;20.60;62.30;;;;;;4974998;28;20058;-60
2021/09/21 10:26:31;;;;;;;5.50;3.88;;;20.50;63.30;;;;;;4964047;28;20110;-60
2021/09/21 10:28:58;;;;;;;4.45;3.92;;;20.60;64.20;;;;;;4938066;29;20042;-60
2021/09/21 10:31:25;;;;;;;5.65;3.72;;;20.60;64.00;;;;;;4960870;28;20035;-60
2021/09/21 10:33:52;;;;;;;7.38;4.30;;;20.60;62.40;;;;;;4975114;28;20064;-61
2021/09/21 10:36:21;;;;;;;6.15;5.60;;;20.70;62.90;;;;;;4942109;29;20521;-59
2021/09/21 10:38:58;;;;;;;7.53;6.05;;;20.80;62.80;;;;;;4935716;29;20027;-60
2021/09/21 10:41:25;;;;;;;14.45;11.25;;;21.00;64.50;;;;;;4943228;28;20031;-60
2021/09/21 10:44:04;;;;;;;5.07;4.45;;;21.00;63.60;;;;;;4955900;29;20086;-60
2021/09/21 10:46:41;;;;;;;17.83;3.80;;;21.10;60.60;;;;;;4962580;28;20084;-61
2021/09/21 10:49:08;;;;;;;3.97;3.63;;;21.10;61.90;;;;;;4955472;28;20031;-62
2021/09/21 10:51:34;;;;;;;3.85;3.45;;;21.20;58.50;;;;;;4954182;28;20107;-62
2021/09/21 10:54:04;;;;;;;3.85;2.83;;;21.20;59.70;;;;;;4962333;28;20097;-62
2021/09/21 10:56:30;;;;;;;3.55;2.67;;;21.40;58.60;;;;;;4947811;29;20027;-62
2021/09/21 10:58:58;;;;;;;4.30;3.28;;;21.50;58.70;;;;;;4960013;28;20031;-68
2021/09/21 11:01:24;;;;;;;3.15;2.85;;;21.40;58.00;;;;;;4959525;28;20166;-61
2021/09/21 11:03:49;;;;;;;2.58;2.38;;;21.40;59.20;;;;;;4944576;28;20497;-61
2021/09/21 11:06:16;;;;;;;2.78;2.47;;;21.40;59.60;;;;;;4956339;28;20059;-61
2021/09/21 11:08:41;;;;;;;2.80;2.60;;;21.40;58.20;;;;;;4959696;28;20436;-61
2021/09/21 11:11:08;;;;;;;4.80;3.30;;;21.60;57.70;;;;;;4958213;28;20029;-62
2021/09/21 11:16:56;;;;;;;6.57;3.97;;;21.60;56.60;;;;;;4949289;28;20085;-62
2021/09/21 11:19:32;;;;;;;7.45;4.32;;;21.60;57.20;;;;;;4937957;28;20048;-62
2021/09/21 11:22:10;;;;;;;7.20;4.80;;;21.70;57.30;;;;;;4955829;28;20066;-61
2021/09/21 11:24:37;;;;;;;10.68;5.88;;;21.60;55.90;;;;;;4965147;28;20059;-61
2021/09/21 11:27:06;;;;;;;7.72;6.40;;;21.70;57.10;;;;;;4953755;28;20064;-61
2021/09/21 11:29:34;;;;;;;6.13;5.13;;;21.90;58.50;;;;;;4958733;28;20024;-61
2021/09/21 11:32:00;;;;;;;6.18;5.57;;;22.00;56.80;;;;;;4953228;28;20042;-61
2021/09/21 11:34:29;;;;;;;5.03;4.53;;;22.20;56.50;;;;;;4966355;28;20412;-61
2021/09/21 11:37:01;;;;;;;5.05;4.55;;;22.30;56.80;;;;;;4947203;28;20031;-61
2021/09/21 11:39:30;;;;;;;6.85;5.35;;;22.30;56.60;;;;;;4971027;28;20034;-61
2021/09/21 11:41:56;;;;;;;5.00;4.53;;;22.50;56.20;;;;;;4962353;28;20053;-61
2021/09/21 11:44:22;;;;;;;8.93;5.93;;;22.40;58.20;;;;;;4962231;28;20051;-61
2021/09/21 11:46:59;;;;;;;3.70;3.35;;;22.50;56.90;;;;;;4960516;28;20052;-61
2021/09/21 11:49:25;;;;;;;4.20;3.30;;;22.80;55.80;;;;;;4954693;28;20489;-61
2021/09/21 11:51:52;;;;;;;6.13;4.70;;;22.90;54.40;;;;;;4954664;28;20369;-61
2021/09/21 11:54:19;;;;;;;4.20;3.67;;;22.90;53.00;;;;;;4958683;28;20089;-61
2021/09/21 11:56:46;;;;;;;4.90;3.47;;;23.10;54.60;;;;;;4968306;28;20027;-61
2021/09/21 11:59:16;;;;;;;4.30;3.28;;;23.20;53.30;;;;;;4970660;28;20400;-61
2021/09/21 12:01:47;;;;;;;5.00;3.67;;;23.30;52.90;;;;;;4957640;28;20444;-61
2021/09/21 12:04:12;;;;;;;4.05;2.90;;;23.50;50.80;;;;;;4952998;28;20022;-61
2021/09/21 12:06:38;;;;;;;2.90;2.60;;;23.90;48.70;;;;;;4963324;28;20707;-61
2021/09/21 12:09:06;;;;;;;3.75;2.58;;;24.20;49.80;;;;;;4946930;28;20031;-61
2021/09/21 12:11:36;;;;;;;3.17;2.88;;;24.60;42.50;;;;;;4946690;28;20106;-61
2021/09/21 12:14:02;;;;;;;5.18;2.63;;;25.80;37.90;;;;;;4943120;28;20055;-61
2021/09/21 12:16:29;;;;;;;4.10;2.83;;;31.70;28.10;;;;;;4949836;28;20027;-62
2021/09/21 12:18:56;;;;;;;3.13;2.85;;;33.00;27.10;;;;;;4970554;28;20600;-61
2021/09/21 12:21:23;;;;;;;3.92;3.22;;;34.10;21.10;;;;;;4977219;28;20030;-61
2021/09/21 12:23:49;;;;;;;3.72;2.78;;;36.20;21.10;;;;;;4976283;28;20022;-61
2021/09/21 12:26:17;;;;;;;3.17;2.78;;;37.70;17.60;;;;;;4965966;28;20038;-61
2021/09/21 12:28:53;;;;;;;4.38;3.42;;;37.30;17.40;;;;;;4972432;28;20031;-61
2021/09/21 12:31:30;;;;;;;5.95;4.03;;;38.00;17.40;;;;;;4965491;28;20031;-61
2021/09/21 12:33:58;;;;;;;3.65;2.70;;;36.00;15.10;;;;;;4977104;28;20031;-61
2021/09/21 12:36:25;;;;;;;4.32;2.90;;;38.20;15.30;;;;;;4973308;28;20094;-62
2021/09/21 12:39:00;;;;;;;5.45;2.90;;;40.50;13.60;;;;;;4958361;28;20034;-62
2021/09/21 12:41:27;;;;;;;2.50;2.28;;;40.80;11.70;;;;;;4976369;28;20023;-61
2021/09/21 12:43:55;;;;;;;2.55;2.20;;;41.60;11.30;;;;;;4975856;28;20330;-61
2021/09/21 12:46:21;;;;;;;3.45;2.20;;;41.40;10.10;;;;;;4975399;28;20492;-61
2021/09/21 12:48:47;;;;;;;3.95;2.65;;;39.50;11.90;;;;;;4975084;28;20477;-62
2021/09/21 12:51:13;;;;;;;2.05;1.95;;;40.10;11.10;;;;;;4959485;28;20081;-62
2021/09/21 12:53:38;;;;;;;5.75;2.92;;;41.20;10.70;;;;;;4975426;28;20142;-62
2021/09/21 12:56:10;;;;;;;3.03;2.42;;;41.10;9.60;;;;;;4976511;28;20089;-62
2021/09/21 12:58:39;;;;;;;2.70;2.50;;;43.00;8.90;;;;;;4974609;28;20043;-61
2021/09/21 13:01:07;;;;;;;3.28;3.05;;;41.90;9.00;;;;;;4976170;28;20105;-61
2021/09/21 13:03:33;;;;;;;3.78;3.38;;;41.90;9.00;;;;;;4974034;28;20049;-61
2021/09/21 13:06:00;;;;;;;6.18;2.72;;;41.70;9.30;;;;;;4975275;28;20033;-62